sensor_id;sensor_type;location;lat;lon;timestamp;pressure;altitude;pressure_sealevel;temperature;humidity
5283;BME280;15376;48.540;9.268;2023-04-25T00:00:15;96915.03;;;6.28;100.00
5283;BME280;15376;48.540;9.268;2023-04-25T00:02:41;96915.84;;;6.37;100.00
5283;BME280;15376;48.540;9.268;2023-04-25T00:05:07;96907.28;;;6.35;100.00
5283;BME280;15376;48.540;9.268;2023-04-25T00:07:34;96896.97;;;6.09;100.00
5283;BME280;15376;48.540;9.268;2023-04-25T00:10:00;96891.03;;;6.07;100.00
5283;BME280;15376;48.540;9.268;2023-04-25T00:12:25;96912.63;;;6.02;100.00
5283;BME280;15376;48.540;9.268;2023-04-25T00:14:53;96923.84;;;5.96;100.00
5283;BME280;15376;48.540;9.268;2023-04-25T00:17:18;96914.81;;;5.91;100.00
5283;BME280;15376;48.540;9.268;2023-04-25T00:19:44;96912.47;;;5.88;100.00
5283;BME280;15376;48.540;9.268;2023-04-25T00:22:11;96929.94;;;5.97;100.00
5283;BME280;15376;48.540;9.268;2023-04-25T00:24:37;96921.06;;;5.98;100.00
5283;BME280;15376;48.540;9.268;2023-04-25T00:27:02;96927.28;;;6.05;100.00
5283;BME280;15376;48.540;9.268;2023-04-25T00:29:28;96914.91;;;6.14;100.00
5283;BME280;15376;48.540;9.268;2023-04-25T00:31:53;96922.31;;;6.18;100.00
5283;BME280;15376;48.540;9.268;2023-04-25T00:34:19;96922.78;;;6.22;100.00
5283;BME280;15376;48.540;9.268;2023-04-25T00:36:44;96913.06;;;6.30;100.00
5283;BME280;15376;48.540;9.268;2023-04-25T00:39:10;96905.41;;;6.44;100.00
5283;BME280;15376;48.540;9.268;2023-04-25T00:41:35;96912.25;;;6.61;100.00
5283;BME280;15376;48.540;9.268;2023-04-25T00:44:02;96907.59;;;6.71;100.00
5283;BME280;15376;48.540;9.268;2023-04-25T00:46:28;96897.38;;;6.68;100.00
5283;BME280;15376;48.540;9.268;2023-04-25T00:48:53;96895.75;;;6.67;100.00
5283;BME280;15376;48.540;9.268;2023-04-25T00:51:20;96905.94;;;6.70;100.00
5283;BME280;15376;48.540;9.268;2023-04-25T00:53:47;96901.66;;;6.69;100.00
5283;BME280;15376;48.540;9.268;2023-04-25T00:56:14;96902.63;;;6.76;100.00
5283;BME280;15376;48.540;9.268;2023-04-25T00:58:40;96893.16;;;6.82;100.00
5283;BME280;15376;48.540;9.268;2023-04-25T01:01:07;96886.72;;;6.84;100.00
5283;BME280;15376;48.540;9.268;2023-04-25T01:03:33;96877.81;;;6.85;100.00
5283;BME280;15376;48.540;9.268;2023-04-25T01:06:01;96888.63;;;6.98;100.00
5283;BME280;15376;48.540;9.268;2023-04-25T01:08:28;96888.91;;;7.03;100.00
5283;BME280;15376;48.540;9.268;2023-04-25T01:10:53;96865.22;;;6.95;100.00
5283;BME280;15376;48.540;9.268;2023-04-25T01:13:18;96884.41;;;7.12;100.00
5283;BME280;15376;48.540;9.268;2023-04-25T01:15:45;96873.03;;;7.12;100.00
5283;BME280;15376;48.540;9.268;2023-04-25T01:18:10;96874.97;;;7.18;100.00
5283;BME280;15376;48.540;9.268;2023-04-25T01:20:37;96861.19;;;7.08;100.00
5283;BME280;15376;48.540;9.268;2023-04-25T01:23:03;96875.66;;;7.12;100.00
5283;BME280;15376;48.540;9.268;2023-04-25T01:25:30;96874.03;;;7.11;100.00
5283;BME280;15376;48.540;9.268;2023-04-25T01:27:56;96867.75;;;7.12;100.00
5283;BME280;15376;48.540;9.268;2023-04-25T01:30:22;96859.47;;;7.15;100.00
5283;BME280;15376;48.540;9.268;2023-04-25T01:32:48;96854.84;;;7.17;100.00
5283;BME280;15376;48.540;9.268;2023-04-25T01:35:13;96860.78;;;7.19;100.00
5283;BME280;15376;48.540;9.268;2023-04-25T01:37:43;96856.53;;;7.10;100.00
5283;BME280;15376;48.540;9.268;2023-04-25T01:40:10;96869.44;;;7.05;100.00
5283;BME280;15376;48.540;9.268;2023-04-25T01:42:37;96851.03;;;6.96;100.00
5283;BME280;15376;48.540;9.268;2023-04-25T01:45:03;96855.31;;;6.97;100.00
5283;BME280;15376;48.540;9.268;2023-04-25T01:47:29;96870.75;;;7.09;100.00
5283;BME280;15376;48.540;9.268;2023-04-25T01:49:55;96850.03;;;6.97;100.00
5283;BME280;15376;48.540;9.268;2023-04-25T01:52:20;96850.66;;;6.99;100.00
5283;BME280;15376;48.540;9.268;2023-04-25T01:54:45;96861.75;;;6.95;100.00
5283;BME280;15376;48.540;9.268;2023-04-25T01:57:11;96875.66;;;6.89;100.00
5283;BME280;15376;48.540;9.268;2023-04-25T01:59:37;96874.88;;;6.80;100.00
5283;BME280;15376;48.540;9.268;2023-04-25T02:02:03;96869.97;;;6.77;100.00
5283;BME280;15376;48.540;9.268;2023-04-25T02:04:31;96867.78;;;6.81;100.00
5283;BME280;15376;48.540;9.268;2023-04-25T02:06:57;96870.19;;;6.90;100.00
5283;BME280;15376;48.540;9.268;2023-04-25T02:09:22;96873.13;;;6.95;100.00
5283;BME280;15376;48.540;9.268;2023-04-25T02:11:48;96868.56;;;6.89;100.00
5283;BME280;15376;48.540;9.268;2023-04-25T02:14:13;96853.88;;;6.87;100.00
5283;BME280;15376;48.540;9.268;2023-04-25T02:16:38;96867.56;;;6.90;100.00
5283;BME280;15376;48.540;9.268;2023-04-25T02:19:05;96861.63;;;6.88;100.00
5283;BME280;15376;48.540;9.268;2023-04-25T02:21:30;96845.09;;;6.72;100.00
5283;BME280;15376;48.540;9.268;2023-04-25T02:23:56;96861.75;;;6.72;100.00
5283;BME280;15376;48.540;9.268;2023-04-25T02:26:21;96858.81;;;6.67;100.00
5283;BME280;15376;48.540;9.268;2023-04-25T02:28:49;96859.81;;;6.66;100.00
5283;BME280;15376;48.540;9.268;2023-04-25T02:31:14;96869.50;;;6.74;100.00
5283;BME280;15376;48.540;9.268;2023-04-25T02:33:40;96863.88;;;6.77;100.00
5283;BME280;15376;48.540;9.268;2023-04-25T02:36:05;96859.03;;;6.80;100.00
5283;BME280;15376;48.540;9.268;2023-04-25T02:38:31;96849.84;;;6.76;100.00
5283;BME280;15376;48.540;9.268;2023-04-25T02:40:56;96849.13;;;6.82;100.00
5283;BME280;15376;48.540;9.268;2023-04-25T02:43:21;96854.72;;;6.87;100.00
5283;BME280;15376;48.540;9.268;2023-04-25T02:45:47;96852.06;;;6.87;100.00
5283;BME280;15376;48.540;9.268;2023-04-25T02:48:12;96834.66;;;6.78;100.00
5283;BME280;15376;48.540;9.268;2023-04-25T02:50:37;96846.78;;;6.87;100.00
5283;BME280;15376;48.540;9.268;2023-04-25T02:53:03;96840.28;;;6.75;100.00
5283;BME280;15376;48.540;9.268;2023-04-25T02:55:28;96853.31;;;6.77;100.00
5283;BME280;15376;48.540;9.268;2023-04-25T02:57:54;96845.31;;;6.62;100.00
5283;BME280;15376;48.540;9.268;2023-04-25T03:00:21;96835.78;;;6.53;100.00
5283;BME280;15376;48.540;9.268;2023-04-25T03:02:47;96843.03;;;6.59;100.00
5283;BME280;15376;48.540;9.268;2023-04-25T03:05:12;96839.09;;;6.55;100.00
5283;BME280;15376;48.540;9.268;2023-04-25T03:07:38;96846.31;;;6.61;100.00
5283;BME280;15376;48.540;9.268;2023-04-25T03:10:07;96843.81;;;6.67;100.00
5283;BME280;15376;48.540;9.268;2023-04-25T03:12:33;96823.88;;;6.65;100.00
5283;BME280;15376;48.540;9.268;2023-04-25T03:14:58;96819.44;;;6.57;100.00
5283;BME280;15376;48.540;9.268;2023-04-25T03:17:24;96832.47;;;6.59;100.00
5283;BME280;15376;48.540;9.268;2023-04-25T03:19:49;96825.91;;;6.55;100.00
5283;BME280;15376;48.540;9.268;2023-04-25T03:22:14;96828.41;;;6.48;100.00
5283;BME280;15376;48.540;9.268;2023-04-25T03:24:40;96811.44;;;6.43;100.00
5283;BME280;15376;48.540;9.268;2023-04-25T03:27:06;96829.53;;;6.54;100.00
5283;BME280;15376;48.540;9.268;2023-04-25T03:29:31;96825.69;;;6.33;100.00
5283;BME280;15376;48.540;9.268;2023-04-25T03:31:56;96830.81;;;6.35;100.00
5283;BME280;15376;48.540;9.268;2023-04-25T03:34:22;96819.31;;;6.20;100.00
5283;BME280;15376;48.540;9.268;2023-04-25T03:36:47;96834.63;;;6.24;100.00
5283;BME280;15376;48.540;9.268;2023-04-25T03:39:12;96831.31;;;6.30;100.00
5283;BME280;15376;48.540;9.268;2023-04-25T03:41:38;96820.13;;;6.28;100.00
5283;BME280;15376;48.540;9.268;2023-04-25T03:44:03;96820.81;;;6.22;100.00
5283;BME280;15376;48.540;9.268;2023-04-25T03:46:29;96830.00;;;6.26;100.00
5283;BME280;15376;48.540;9.268;2023-04-25T03:48:54;96833.50;;;6.19;100.00
5283;BME280;15376;48.540;9.268;2023-04-25T03:51:19;96840.75;;;6.17;100.00
5283;BME280;15376;48.540;9.268;2023-04-25T03:53:45;96830.69;;;6.20;100.00
5283;BME280;15376;48.540;9.268;2023-04-25T03:56:10;96833.47;;;6.27;100.00
5283;BME280;15376;48.540;9.268;2023-04-25T03:58:36;96826.38;;;6.27;100.00
5283;BME280;15376;48.540;9.268;2023-04-25T04:01:01;96829.97;;;6.34;100.00
5283;BME280;15376;48.540;9.268;2023-04-25T04:03:32;96832.31;;;6.29;100.00
5283;BME280;15376;48.540;9.268;2023-04-25T04:05:58;96833.00;;;6.23;100.00
5283;BME280;15376;48.540;9.268;2023-04-25T04:08:24;96825.28;;;6.14;100.00
5283;BME280;15376;48.540;9.268;2023-04-25T04:10:49;96831.72;;;6.11;100.00
5283;BME280;15376;48.540;9.268;2023-04-25T04:13:15;96836.97;;;6.19;100.00
5283;BME280;15376;48.540;9.268;2023-04-25T04:15:40;96839.25;;;6.22;100.00
5283;BME280;15376;48.540;9.268;2023-04-25T04:18:06;96838.91;;;6.25;100.00
5283;BME280;15376;48.540;9.268;2023-04-25T04:20:31;96830.69;;;6.20;100.00
5283;BME280;15376;48.540;9.268;2023-04-25T04:22:56;96831.22;;;6.16;100.00
5283;BME280;15376;48.540;9.268;2023-04-25T04:25:22;96835.00;;;6.13;100.00
5283;BME280;15376;48.540;9.268;2023-04-25T04:27:47;96838.63;;;6.12;100.00
5283;BME280;15376;48.540;9.268;2023-04-25T04:30:12;96847.28;;;5.98;100.00
5283;BME280;15376;48.540;9.268;2023-04-25T04:32:38;96849.41;;;5.94;100.00
5283;BME280;15376;48.540;9.268;2023-04-25T04:35:04;96852.06;;;5.94;100.00
5283;BME280;15376;48.540;9.268;2023-04-25T04:37:29;96846.56;;;6.04;100.00
5283;BME280;15376;48.540;9.268;2023-04-25T04:39:55;96846.53;;;6.12;100.00
5283;BME280;15376;48.540;9.268;2023-04-25T04:42:21;96833.97;;;6.22;100.00
5283;BME280;15376;48.540;9.268;2023-04-25T04:44:46;96843.00;;;6.36;100.00
5283;BME280;15376;48.540;9.268;2023-04-25T04:47:12;96840.84;;;6.40;100.00
5283;BME280;15376;48.540;9.268;2023-04-25T04:49:39;96843.91;;;6.43;100.00
5283;BME280;15376;48.540;9.268;2023-04-25T04:52:05;96846.34;;;6.53;100.00
5283;BME280;15376;48.540;9.268;2023-04-25T04:54:30;96852.44;;;6.53;100.00
5283;BME280;15376;48.540;9.268;2023-04-25T04:56:55;96859.84;;;6.58;100.00
5283;BME280;15376;48.540;9.268;2023-04-25T04:59:21;96865.59;;;6.61;100.00
5283;BME280;15376;48.540;9.268;2023-04-25T05:01:46;96861.00;;;6.55;100.00
5283;BME280;15376;48.540;9.268;2023-04-25T05:04:12;96855.88;;;6.62;100.00
5283;BME280;15376;48.540;9.268;2023-04-25T05:06:37;96855.53;;;6.65;100.00
5283;BME280;15376;48.540;9.268;2023-04-25T05:09:03;96859.59;;;6.76;100.00
5283;BME280;15376;48.540;9.268;2023-04-25T05:11:29;96859.59;;;6.76;100.00
5283;BME280;15376;48.540;9.268;2023-04-25T05:13:54;96857.88;;;6.83;100.00
5283;BME280;15376;48.540;9.268;2023-04-25T05:16:20;96857.69;;;6.84;100.00
5283;BME280;15376;48.540;9.268;2023-04-25T05:18:46;96869.91;;;6.85;100.00
5283;BME280;15376;48.540;9.268;2023-04-25T05:21:11;96869.59;;;6.80;100.00
5283;BME280;15376;48.540;9.268;2023-04-25T05:23:36;96855.31;;;6.75;100.00
5283;BME280;15376;48.540;9.268;2023-04-25T05:26:02;96860.69;;;6.81;100.00
5283;BME280;15376;48.540;9.268;2023-04-25T05:28:27;96863.16;;;6.83;100.00
5283;BME280;15376;48.540;9.268;2023-04-25T05:30:53;96865.97;;;6.81;100.00
5283;BME280;15376;48.540;9.268;2023-04-25T05:33:18;96857.47;;;6.71;100.00
5283;BME280;15376;48.540;9.268;2023-04-25T05:35:44;96869.59;;;6.80;100.00
5283;BME280;15376;48.540;9.268;2023-04-25T05:38:10;96862.63;;;6.87;100.00
5283;BME280;15376;48.540;9.268;2023-04-25T05:40:35;96867.84;;;6.95;100.00
5283;BME280;15376;48.540;9.268;2023-04-25T05:43:01;96862.88;;;7.00;100.00
5283;BME280;15376;48.540;9.268;2023-04-25T05:45:26;96862.81;;;7.09;100.00
5283;BME280;15376;48.540;9.268;2023-04-25T05:47:52;96855.53;;;7.11;100.00
5283;BME280;15376;48.540;9.268;2023-04-25T05:50:17;96858.56;;;7.22;100.00
5283;BME280;15376;48.540;9.268;2023-04-25T05:52:43;96846.47;;;7.28;100.00
5283;BME280;15376;48.540;9.268;2023-04-25T05:55:08;96848.06;;;7.37;100.00
5283;BME280;15376;48.540;9.268;2023-04-25T05:57:34;96850.09;;;7.50;100.00
5283;BME280;15376;48.540;9.268;2023-04-25T05:59:59;96852.09;;;7.62;100.00
5283;BME280;15376;48.540;9.268;2023-04-25T06:02:24;96848.03;;;7.75;100.00
5283;BME280;15376;48.540;9.268;2023-04-25T06:04:50;96839.75;;;7.78;100.00
5283;BME280;15376;48.540;9.268;2023-04-25T06:07:16;96834.91;;;7.81;100.00
5283;BME280;15376;48.540;9.268;2023-04-25T06:09:43;96850.03;;;8.02;100.00
5283;BME280;15376;48.540;9.268;2023-04-25T06:12:08;96847.75;;;8.14;100.00
5283;BME280;15376;48.540;9.268;2023-04-25T06:14:34;96840.47;;;8.30;100.00
5283;BME280;15376;48.540;9.268;2023-04-25T06:16:59;96845.09;;;8.43;100.00
5283;BME280;15376;48.540;9.268;2023-04-25T06:19:25;96844.63;;;8.54;100.00
5283;BME280;15376;48.540;9.268;2023-04-25T06:21:50;96849.25;;;8.67;100.00
5283;BME280;15376;48.540;9.268;2023-04-25T06:24:15;96850.66;;;8.63;100.00
5283;BME280;15376;48.540;9.268;2023-04-25T06:26:44;96844.59;;;8.69;100.00
5283;BME280;15376;48.540;9.268;2023-04-25T06:29:09;96846.09;;;8.57;100.00
5283;BME280;15376;48.540;9.268;2023-04-25T06:31:35;96847.94;;;8.12;100.00
5283;BME280;15376;48.540;9.268;2023-04-25T06:34:00;96847.84;;;8.20;100.00
5283;BME280;15376;48.540;9.268;2023-04-25T06:36:25;96852.88;;;8.15;100.00
5283;BME280;15376;48.540;9.268;2023-04-25T06:38:52;96841.66;;;8.13;100.00
5283;BME280;15376;48.540;9.268;2023-04-25T06:41:18;96835.00;;;8.32;100.00
5283;BME280;15376;48.540;9.268;2023-04-25T06:43:44;96845.56;;;8.47;100.00
5283;BME280;15376;48.540;9.268;2023-04-25T06:46:09;96845.47;;;8.25;100.00
5283;BME280;15376;48.540;9.268;2023-04-25T06:48:35;96848.41;;;8.30;100.00
5283;BME280;15376;48.540;9.268;2023-04-25T06:51:00;96841.84;;;8.26;100.00
5283;BME280;15376;48.540;9.268;2023-04-25T06:53:25;96844.28;;;8.28;100.00
5283;BME280;15376;48.540;9.268;2023-04-25T06:55:51;96846.22;;;8.19;100.00
5283;BME280;15376;48.540;9.268;2023-04-25T06:58:17;96829.06;;;8.15;100.00
5283;BME280;15376;48.540;9.268;2023-04-25T07:00:42;96833.00;;;8.04;100.00
5283;BME280;15376;48.540;9.268;2023-04-25T07:03:07;96854.78;;;8.21;100.00
5283;BME280;15376;48.540;9.268;2023-04-25T07:05:33;96857.78;;;8.18;100.00
5283;BME280;15376;48.540;9.268;2023-04-25T07:07:58;96845.28;;;8.12;100.00
5283;BME280;15376;48.540;9.268;2023-04-25T07:10:24;96846.41;;;8.18;100.00
5283;BME280;15376;48.540;9.268;2023-04-25T07:12:50;96839.19;;;8.12;100.00
5283;BME280;15376;48.540;9.268;2023-04-25T07:15:15;96843.38;;;8.06;100.00
5283;BME280;15376;48.540;9.268;2023-04-25T07:17:41;96854.59;;;8.23;100.00
5283;BME280;15376;48.540;9.268;2023-04-25T07:20:06;96844.19;;;8.21;100.00
5283;BME280;15376;48.540;9.268;2023-04-25T07:22:32;96865.91;;;8.31;100.00
5283;BME280;15376;48.540;9.268;2023-04-25T07:24:58;96859.06;;;8.22;100.00
5283;BME280;15376;48.540;9.268;2023-04-25T07:27:23;96857.44;;;8.21;100.00
5283;BME280;15376;48.540;9.268;2023-04-25T07:29:48;96857.88;;;8.10;100.00
5283;BME280;15376;48.540;9.268;2023-04-25T07:32:14;96856.06;;;7.96;100.00
5283;BME280;15376;48.540;9.268;2023-04-25T07:34:39;96857.59;;;8.05;100.00
5283;BME280;15376;48.540;9.268;2023-04-25T07:37:05;96866.91;;;8.16;100.00
5283;BME280;15376;48.540;9.268;2023-04-25T07:39:31;96867.91;;;8.29;100.00
5283;BME280;15376;48.540;9.268;2023-04-25T07:41:56;96858.97;;;8.30;100.00
5283;BME280;15376;48.540;9.268;2023-04-25T07:44:23;96870.09;;;8.41;100.00
5283;BME280;15376;48.540;9.268;2023-04-25T07:46:49;96871.94;;;8.40;100.00
5283;BME280;15376;48.540;9.268;2023-04-25T07:49:15;96868.50;;;8.40;100.00
5283;BME280;15376;48.540;9.268;2023-04-25T07:51:40;96876.63;;;8.38;100.00
5283;BME280;15376;48.540;9.268;2023-04-25T07:54:06;96872.00;;;8.17;100.00
5283;BME280;15376;48.540;9.268;2023-04-25T07:56:32;96882.59;;;8.32;100.00
5283;BME280;15376;48.540;9.268;2023-04-25T07:58:57;96887.06;;;8.17;100.00
5283;BME280;15376;48.540;9.268;2023-04-25T08:01:23;96893.81;;;8.19;100.00
5283;BME280;15376;48.540;9.268;2023-04-25T08:03:48;96887.06;;;8.02;100.00
5283;BME280;15376;48.540;9.268;2023-04-25T08:06:13;96892.16;;;7.89;100.00
5283;BME280;15376;48.540;9.268;2023-04-25T08:08:39;96907.31;;;7.95;100.00
5283;BME280;15376;48.540;9.268;2023-04-25T08:11:04;96903.63;;;7.81;100.00
5283;BME280;15376;48.540;9.268;2023-04-25T08:13:30;96902.59;;;7.53;100.00
5283;BME280;15376;48.540;9.268;2023-04-25T08:15:55;96923.53;;;7.54;100.00
5283;BME280;15376;48.540;9.268;2023-04-25T08:18:21;96927.47;;;7.35;100.00
5283;BME280;15376;48.540;9.268;2023-04-25T08:20:46;96932.97;;;7.26;100.00
5283;BME280;15376;48.540;9.268;2023-04-25T08:23:11;96935.78;;;7.24;100.00
5283;BME280;15376;48.540;9.268;2023-04-25T08:25:37;96941.03;;;7.10;100.00
5283;BME280;15376;48.540;9.268;2023-04-25T08:28:02;96946.47;;;7.08;100.00
5283;BME280;15376;48.540;9.268;2023-04-25T08:30:28;96944.34;;;7.03;100.00
5283;BME280;15376;48.540;9.268;2023-04-25T08:32:54;96960.06;;;7.20;100.00
5283;BME280;15376;48.540;9.268;2023-04-25T08:35:20;96949.94;;;7.09;100.00
5283;BME280;15376;48.540;9.268;2023-04-25T08:37:45;96955.88;;;7.11;100.00
5283;BME280;15376;48.540;9.268;2023-04-25T08:40:12;96966.19;;;7.20;100.00
5283;BME280;15376;48.540;9.268;2023-04-25T08:42:41;96970.72;;;7.12;100.00
5283;BME280;15376;48.540;9.268;2023-04-25T08:45:08;96957.38;;;7.05;100.00
5283;BME280;15376;48.540;9.268;2023-04-25T08:47:34;96980.97;;;7.07;100.00
5283;BME280;15376;48.540;9.268;2023-04-25T08:50:03;96982.97;;;7.05;100.00
5283;BME280;15376;48.540;9.268;2023-04-25T08:52:36;96986.59;;;7.03;100.00
5283;BME280;15376;48.540;9.268;2023-04-25T08:55:02;96981.31;;;7.03;100.00
5283;BME280;15376;48.540;9.268;2023-04-25T08:57:31;96995.03;;;6.99;100.00
5283;BME280;15376;48.540;9.268;2023-04-25T08:59:57;97002.44;;;7.03;100.00
5283;BME280;15376;48.540;9.268;2023-04-25T09:02:24;97005.72;;;7.06;100.00
5283;BME280;15376;48.540;9.268;2023-04-25T09:04:50;97006.88;;;7.03;100.00
5283;BME280;15376;48.540;9.268;2023-04-25T09:07:15;97020.81;;;7.20;100.00
5283;BME280;15376;48.540;9.268;2023-04-25T09:09:43;97007.16;;;7.16;100.00
5283;BME280;15376;48.540;9.268;2023-04-25T09:12:09;97009.25;;;7.21;100.00
5283;BME280;15376;48.540;9.268;2023-04-25T09:14:35;97011.91;;;7.21;100.00
5283;BME280;15376;48.540;9.268;2023-04-25T09:17:04;97023.00;;;7.16;100.00
5283;BME280;15376;48.540;9.268;2023-04-25T09:19:34;97027.75;;;7.21;100.00
5283;BME280;15376;48.540;9.268;2023-04-25T09:22:02;97037.44;;;7.28;100.00
5283;BME280;15376;48.540;9.268;2023-04-25T09:27:07;97034.94;;;7.04;100.00
5283;BME280;15376;48.540;9.268;2023-04-25T09:29:40;97034.38;;;7.17;100.00
5283;BME280;15376;48.540;9.268;2023-04-25T09:32:20;97047.50;;;7.33;100.00
5283;BME280;15376;48.540;9.268;2023-04-25T09:34:50;97050.25;;;7.40;100.00
5283;BME280;15376;48.540;9.268;2023-04-25T09:37:24;97060.34;;;7.36;100.00
5283;BME280;15376;48.540;9.268;2023-04-25T09:39:52;97061.81;;;7.39;100.00
5283;BME280;15376;48.540;9.268;2023-04-25T09:42:17;97059.09;;;7.24;100.00
5283;BME280;15376;48.540;9.268;2023-04-25T09:44:46;97056.34;;;7.17;100.00
5283;BME280;15376;48.540;9.268;2023-04-25T09:47:13;97062.78;;;7.15;100.00
5283;BME280;15376;48.540;9.268;2023-04-25T09:49:40;97069.09;;;7.06;100.00
5283;BME280;15376;48.540;9.268;2023-04-25T09:52:16;97078.03;;;6.88;100.00
5283;BME280;15376;48.540;9.268;2023-04-25T09:54:44;97070.13;;;6.80;100.00
5283;BME280;15376;48.540;9.268;2023-04-25T09:57:17;97083.31;;;6.96;100.00
5283;BME280;15376;48.540;9.268;2023-04-25T09:59:47;97087.69;;;6.65;100.00
5283;BME280;15376;48.540;9.268;2023-04-25T10:02:15;97085.03;;;6.73;100.00
5283;BME280;15376;48.540;9.268;2023-04-25T10:04:41;97085.03;;;6.65;100.00
5283;BME280;15376;48.540;9.268;2023-04-25T10:07:09;97096.91;;;6.61;100.00
5283;BME280;15376;48.540;9.268;2023-04-25T10:09:37;97074.84;;;6.54;100.00
5283;BME280;15376;48.540;9.268;2023-04-25T10:12:05;97095.25;;;6.76;100.00
5283;BME280;15376;48.540;9.268;2023-04-25T10:14:31;97091.63;;;6.69;100.00
5283;BME280;15376;48.540;9.268;2023-04-25T10:17:00;97100.53;;;6.76;100.00
5283;BME280;15376;48.540;9.268;2023-04-25T10:19:26;97082.41;;;6.65;100.00
5283;BME280;15376;48.540;9.268;2023-04-25T10:24:30;97108.78;;;6.57;100.00
5283;BME280;15376;48.540;9.268;2023-04-25T10:26:56;97113.41;;;6.55;100.00
5283;BME280;15376;48.540;9.268;2023-04-25T10:29:26;97108.84;;;6.32;100.00
5283;BME280;15376;48.540;9.268;2023-04-25T10:31:52;97111.97;;;6.28;100.00
5283;BME280;15376;48.540;9.268;2023-04-25T10:34:17;97101.91;;;6.15;100.00
5283;BME280;15376;48.540;9.268;2023-04-25T10:36:50;97116.09;;;6.30;100.00
5283;BME280;15376;48.540;9.268;2023-04-25T10:39:26;97104.69;;;6.14;100.00
5283;BME280;15376;48.540;9.268;2023-04-25T10:41:58;97123.63;;;6.09;100.00
5283;BME280;15376;48.540;9.268;2023-04-25T10:44:28;97125.63;;;6.07;100.00
5283;BME280;15376;48.540;9.268;2023-04-25T10:46:58;97126.94;;;6.03;100.00
5283;BME280;15376;48.540;9.268;2023-04-25T10:49:34;97129.53;;;5.87;100.00
5283;BME280;15376;48.540;9.268;2023-04-25T10:52:17;97140.06;;;5.87;100.00
5283;BME280;15376;48.540;9.268;2023-04-25T10:54:47;97142.16;;;5.75;100.00
5283;BME280;15376;48.540;9.268;2023-04-25T10:57:30;97142.63;;;5.62;100.00
5283;BME280;15376;48.540;9.268;2023-04-25T11:00:00;97147.22;;;5.60;100.00
5283;BME280;15376;48.540;9.268;2023-04-25T11:02:30;97158.13;;;5.65;100.00
5283;BME280;15376;48.540;9.268;2023-04-25T11:04:56;97161.06;;;5.62;100.00
5283;BME280;15376;48.540;9.268;2023-04-25T11:08:02;97161.09;;;5.70;100.00
5283;BME280;15376;48.540;9.268;2023-04-25T11:10:32;97166.06;;;5.82;100.00
5283;BME280;15376;48.540;9.268;2023-04-25T11:13:00;97161.41;;;5.67;100.00
5283;BME280;15376;48.540;9.268;2023-04-25T11:15:26;97172.31;;;5.81;100.00
5283;BME280;15376;48.540;9.268;2023-04-25T11:17:52;97177.31;;;6.00;100.00
5283;BME280;15376;48.540;9.268;2023-04-25T11:20:18;97181.31;;;6.12;100.00
5283;BME280;15376;48.540;9.268;2023-04-25T11:22:45;97175.72;;;5.99;100.00
5283;BME280;15376;48.540;9.268;2023-04-25T11:25:12;97189.50;;;6.01;100.00
5283;BME280;15376;48.540;9.268;2023-04-25T11:27:53;97189.41;;;6.19;100.00
5283;BME280;15376;48.540;9.268;2023-04-25T11:30:20;97187.59;;;6.27;100.00
5283;BME280;15376;48.540;9.268;2023-04-25T11:32:46;97166.19;;;6.39;100.00
5283;BME280;15376;48.540;9.268;2023-04-25T11:35:12;97183.81;;;6.79;100.00
5283;BME280;15376;48.540;9.268;2023-04-25T11:37:44;97178.00;;;6.83;100.00
5283;BME280;15376;48.540;9.268;2023-04-25T11:40:10;97187.16;;;7.20;100.00
5283;BME280;15376;48.540;9.268;2023-04-25T11:42:37;97195.16;;;6.95;100.00
5283;BME280;15376;48.540;9.268;2023-04-25T11:45:03;97176.34;;;6.90;100.00
5283;BME280;15376;48.540;9.268;2023-04-25T11:47:30;97186.22;;;7.13;100.00
5283;BME280;15376;48.540;9.268;2023-04-25T11:49:58;97176.28;;;7.23;100.00
5283;BME280;15376;48.540;9.268;2023-04-25T11:52:24;97184.13;;;7.47;100.00
5283;BME280;15376;48.540;9.268;2023-04-25T11:54:50;97173.09;;;7.35;100.00
5283;BME280;15376;48.540;9.268;2023-04-25T11:57:19;97187.78;;;7.46;100.00
5283;BME280;15376;48.540;9.268;2023-04-25T11:59:44;97178.47;;;7.58;100.00
5283;BME280;15376;48.540;9.268;2023-04-25T12:02:24;97180.59;;;7.63;100.00
5283;BME280;15376;48.540;9.268;2023-04-25T12:04:50;97190.31;;;7.62;100.00
5283;BME280;15376;48.540;9.268;2023-04-25T12:07:15;97192.97;;;8.24;100.00
5283;BME280;15376;48.540;9.268;2023-04-25T12:09:41;97187.13;;;8.06;100.00
5283;BME280;15376;48.540;9.268;2023-04-25T12:12:09;97193.16;;;8.23;100.00
5283;BME280;15376;48.540;9.268;2023-04-25T12:14:35;97189.91;;;8.13;100.00
5283;BME280;15376;48.540;9.268;2023-04-25T12:17:02;97197.19;;;8.11;100.00
5283;BME280;15376;48.540;9.268;2023-04-25T12:19:33;97181.44;;;7.94;100.00
5283;BME280;15376;48.540;9.268;2023-04-25T12:22:00;97199.84;;;7.80;100.00
5283;BME280;15376;48.540;9.268;2023-04-25T12:24:27;97204.59;;;7.53;100.00
5283;BME280;15376;48.540;9.268;2023-04-25T12:27:03;97202.25;;;7.03;100.00
5283;BME280;15376;48.540;9.268;2023-04-25T12:29:30;97206.22;;;6.99;100.00
5283;BME280;15376;48.540;9.268;2023-04-25T12:31:56;97200.94;;;6.83;100.00
5283;BME280;15376;48.540;9.268;2023-04-25T12:34:23;97210.66;;;7.07;100.00
5283;BME280;15376;48.540;9.268;2023-04-25T12:36:49;97202.03;;;7.21;100.00
5283;BME280;15376;48.540;9.268;2023-04-25T12:39:20;97210.94;;;7.20;100.00
5283;BME280;15376;48.540;9.268;2023-04-25T12:41:47;97224.81;;;7.22;100.00
5283;BME280;15376;48.540;9.268;2023-04-25T12:44:13;97232.50;;;7.48;100.00
5283;BME280;15376;48.540;9.268;2023-04-25T12:46:39;97217.19;;;7.35;100.00
5283;BME280;15376;48.540;9.268;2023-04-25T12:49:06;97231.13;;;7.60;100.00
5283;BME280;15376;48.540;9.268;2023-04-25T12:51:33;97230.25;;;7.76;100.00
5283;BME280;15376;48.540;9.268;2023-04-25T12:53:59;97227.94;;;7.81;100.00
5283;BME280;15376;48.540;9.268;2023-04-25T12:56:26;97209.94;;;7.76;100.00
5283;BME280;15376;48.540;9.268;2023-04-25T12:58:52;97229.41;;;8.14;100.00
5283;BME280;15376;48.540;9.268;2023-04-25T13:01:17;97230.50;;;8.28;100.00
5283;BME280;15376;48.540;9.268;2023-04-25T13:03:43;97224.53;;;8.57;100.00
5283;BME280;15376;48.540;9.268;2023-04-25T13:06:08;97218.41;;;8.79;100.00
5283;BME280;15376;48.540;9.268;2023-04-25T13:08:34;97213.91;;;9.02;100.00
5283;BME280;15376;48.540;9.268;2023-04-25T13:11:00;97218.66;;;9.22;100.00